createdAt,value
2019-03-18T00:00:24.126Z,85.60
2019-03-18T00:02:53.219Z,85.40
2019-03-18T00:05:22.309Z,85.50
2019-03-18T00:07:51.411Z,85.60
2019-03-18T00:10:20.191Z,85.50
2019-03-18T00:12:52.017Z,86.40
2019-03-18T00:15:19.779Z,86.10
2019-03-18T00:17:48.828Z,86.20
2019-03-18T00:20:17.918Z,86.10
2019-03-18T00:22:47.123Z,86.50
2019-03-18T00:25:16.395Z,86.70
2019-03-18T00:27:45.102Z,86.60
2019-03-18T00:30:16.458Z,86.70
2019-03-18T00:32:45.556Z,86.80
2019-03-18T00:35:14.328Z,86.90
2019-03-18T00:37:43.550Z,87.00
2019-03-18T00:40:15.100Z,86.90
2019-03-18T00:42:44.186Z,87.60
2019-03-18T00:45:15.290Z,87.50
2019-03-18T00:47:44.775Z,88.20
2019-03-18T00:50:16.093Z,88.00
2019-03-18T00:52:45.487Z,88.40
2019-03-18T00:55:14.206Z,87.70
2019-03-18T00:57:43.086Z,88.30
2019-03-18T01:00:16.575Z,87.90
2019-03-18T01:02:45.761Z,88.10
2019-03-18T01:05:14.892Z,88.10
2019-03-18T01:07:43.676Z,88.40
2019-03-18T01:10:14.082Z,88.30
2019-03-18T01:12:42.853Z,88.50
2019-03-18T01:15:26.913Z,89.20
2019-03-18T01:17:44.480Z,89.30
2019-03-18T01:20:14.357Z,88.90
2019-03-18T01:22:43.070Z,89.10
2019-03-18T01:25:12.250Z,88.40
2019-03-18T01:27:41.545Z,89.20
2019-03-18T01:30:12.512Z,89.00
2019-03-18T01:32:41.576Z,89.30
2019-03-18T01:35:11.396Z,89.00
2019-03-18T01:37:40.492Z,89.20
2019-03-18T01:40:14.406Z,89.20
2019-03-18T01:42:43.614Z,89.00
2019-03-18T01:45:12.779Z,89.60
2019-03-18T01:47:41.525Z,89.00
2019-03-18T01:50:15.182Z,89.50
2019-03-18T01:52:44.284Z,89.60
2019-03-18T01:55:13.720Z,89.80
2019-03-18T01:57:42.532Z,89.30
2019-03-18T02:00:13.727Z,89.60
2019-03-18T02:02:43.978Z,89.60
2019-03-18T02:05:13.141Z,89.80
2019-03-18T02:07:42.338Z,89.90
2019-03-18T02:10:17.688Z,89.70
2019-03-18T02:12:46.892Z,89.90
2019-03-18T02:15:16.389Z,90.10
2019-03-18T02:17:45.161Z,90.10
2019-03-18T02:20:19.710Z,89.40
2019-03-18T02:22:48.329Z,90.00
2019-03-18T02:25:17.388Z,89.90
2019-03-18T02:27:46.207Z,90.10
2019-03-18T02:30:18.063Z,90.00
2019-03-18T02:32:47.134Z,90.00
2019-03-18T02:35:15.961Z,89.50
2019-03-18T02:37:45.125Z,89.50
2019-03-18T02:40:14.425Z,88.60
2019-03-18T02:42:43.626Z,89.70
2019-03-18T02:45:12.940Z,89.50
2019-03-18T02:47:42.125Z,89.40
2019-03-18T02:50:11.833Z,88.80
2019-03-18T02:52:40.945Z,89.30
2019-03-18T02:55:10.536Z,89.40
2019-03-18T02:57:39.633Z,88.90
2019-03-18T03:00:11.443Z,89.00
2019-03-18T03:02:40.254Z,88.70
2019-03-18T03:05:11.140Z,88.40
2019-03-18T03:07:40.341Z,88.10
2019-03-18T03:10:12.003Z,87.90
2019-03-18T03:12:41.071Z,88.10
2019-03-18T03:15:14.539Z,88.40
2019-03-18T03:17:43.976Z,88.10
2019-03-18T03:20:13.067Z,88.60
2019-03-18T03:22:41.770Z,89.20
2019-03-18T03:25:11.601Z,89.30
2019-03-18T03:27:40.669Z,89.40
2019-03-18T03:30:15.756Z,88.70
2019-03-18T03:32:44.555Z,89.00
2019-03-18T03:35:14.174Z,89.00
2019-03-18T03:37:43.339Z,88.00
2019-03-18T03:40:13.423Z,89.20
2019-03-18T03:42:42.526Z,88.80
2019-03-18T03:45:13.616Z,89.50
2019-03-18T03:47:42.407Z,89.10
2019-03-18T03:50:12.985Z,90.00
2019-03-18T03:52:43.754Z,89.80
2019-03-18T03:55:13.745Z,89.00
2019-03-18T03:57:42.514Z,89.30
2019-03-18T04:00:13.358Z,89.60
2019-03-18T04:02:42.371Z,89.80
2019-03-18T04:05:11.620Z,89.40
2019-03-18T04:07:41.159Z,89.80
2019-03-18T04:10:13.816Z,89.40
2019-03-18T04:12:44.476Z,89.40
2019-03-18T04:15:15.004Z,89.50
2019-03-18T04:17:43.802Z,89.50
2019-03-18T04:20:14.839Z,89.50
2019-03-18T04:22:43.639Z,90.10
2019-03-18T04:25:12.705Z,90.20
2019-03-18T04:27:41.515Z,90.10
2019-03-18T04:30:12.804Z,89.90
2019-03-18T04:32:41.953Z,89.40
2019-03-18T04:35:11.259Z,89.50
2019-03-18T04:37:40.349Z,89.70
2019-03-18T04:40:13.472Z,89.30
2019-03-18T04:42:42.534Z,89.50
2019-03-18T04:45:11.945Z,90.00
2019-03-18T04:47:41.133Z,89.80
2019-03-18T04:50:11.634Z,89.80
2019-03-18T04:52:40.868Z,89.20
2019-03-18T04:55:10.461Z,89.70
2019-03-18T04:57:39.186Z,90.20
2019-03-18T05:00:12.826Z,89.50
2019-03-18T05:02:41.645Z,90.10
2019-03-18T05:05:10.847Z,89.80
2019-03-18T05:07:39.638Z,90.00
2019-03-18T05:10:10.681Z,90.00
2019-03-18T05:12:39.462Z,90.00
2019-03-18T05:15:11.491Z,89.10
2019-03-18T05:17:40.631Z,89.50
2019-03-18T05:20:10.926Z,90.00
2019-03-18T05:22:39.691Z,89.40
2019-03-18T05:25:10.374Z,90.00
2019-03-18T05:27:39.089Z,88.90
2019-03-18T05:30:13.287Z,88.80
2019-03-18T05:32:42.091Z,89.50
2019-03-18T05:35:11.282Z,89.10
2019-03-18T05:37:40.365Z,89.40
2019-03-18T05:40:09.563Z,88.80
2019-03-18T05:42:38.319Z,89.90
2019-03-18T05:45:12.060Z,90.00
2019-03-18T05:47:41.360Z,90.10
2019-03-18T05:50:12.044Z,90.10
2019-03-18T05:52:41.181Z,89.60
2019-03-18T05:55:10.904Z,89.80
2019-03-18T05:57:39.619Z,90.10
2019-03-18T06:00:11.416Z,89.10
2019-03-18T06:02:40.545Z,90.00
2019-03-18T06:05:10.254Z,89.70
2019-03-18T06:07:39.349Z,89.70
2019-03-18T06:10:12.833Z,89.80
2019-03-18T06:12:42.046Z,89.60
2019-03-18T06:15:12.150Z,90.00
2019-03-18T06:17:51.510Z,89.40
2019-03-18T06:20:12.411Z,89.40
2019-03-18T06:22:41.378Z,89.50
2019-03-18T06:25:10.393Z,89.80
2019-03-18T06:27:39.587Z,89.70
2019-03-18T06:30:11.431Z,89.00
2019-03-18T06:32:40.207Z,89.50
2019-03-18T06:35:11.086Z,89.70
2019-03-18T06:37:40.186Z,89.50
2019-03-18T06:40:10.960Z,89.50
2019-03-18T06:42:39.781Z,89.80
2019-03-18T06:45:10.839Z,89.80
2019-03-18T06:47:39.943Z,90.10
2019-03-18T06:50:13.757Z,90.00
2019-03-18T06:52:42.842Z,90.00
2019-03-18T06:55:11.934Z,89.90
2019-03-18T06:57:41.037Z,89.50
2019-03-18T07:00:14.647Z,89.50
2019-03-18T07:02:43.388Z,89.30
2019-03-18T07:05:12.522Z,90.30
2019-03-18T07:07:41.644Z,89.60
2019-03-18T07:10:13.276Z,89.00
2019-03-18T07:12:42.375Z,87.50
2019-03-18T07:15:12.179Z,87.50
2019-03-18T07:17:40.998Z,87.50
2019-03-18T07:20:14.415Z,87.50
2019-03-18T07:22:43.232Z,85.40
2019-03-18T07:25:12.290Z,85.30
2019-03-18T07:27:41.071Z,84.60
2019-03-18T07:30:12.556Z,83.80
2019-03-18T07:32:41.699Z,84.30
2019-03-18T07:35:10.791Z,84.60
2019-03-18T07:37:39.543Z,84.20
2019-03-18T07:40:13.721Z,83.00
2019-03-18T07:42:42.895Z,82.90
2019-03-18T07:45:15.586Z,83.10
2019-03-18T07:47:43.370Z,83.30
2019-03-18T07:50:15.928Z,80.70
2019-03-18T07:52:44.761Z,81.60
2019-03-18T07:55:13.905Z,82.10
2019-03-18T07:57:42.909Z,80.80
2019-03-18T08:00:15.982Z,81.30
2019-03-18T08:02:45.199Z,80.70
2019-03-18T08:05:13.933Z,81.40
2019-03-18T08:07:43.087Z,81.10
2019-03-18T08:10:14.011Z,80.60
2019-03-18T08:12:42.802Z,80.60
2019-03-18T08:15:13.239Z,79.70
2019-03-18T08:17:42.019Z,78.10
2019-03-18T08:20:12.762Z,81.20
2019-03-18T08:22:41.965Z,75.40
2019-03-18T08:25:11.465Z,75.50
2019-03-18T08:27:40.554Z,65.40
2019-03-18T08:30:12.514Z,61.80
2019-03-18T08:32:41.532Z,59.10
2019-03-18T08:35:10.606Z,56.00
2019-03-18T08:37:39.360Z,58.00
2019-03-18T08:40:13.886Z,53.60
2019-03-18T08:42:42.606Z,56.40
2019-03-18T08:45:12.822Z,51.90
2019-03-18T08:47:41.831Z,51.50
2019-03-18T08:50:12.857Z,51.10
2019-03-18T08:52:42.024Z,51.30
2019-03-18T08:55:12.091Z,47.80
2019-03-18T08:57:40.806Z,48.40
2019-03-18T09:00:16.827Z,47.90
2019-03-18T09:02:45.537Z,48.40
2019-03-18T09:05:14.676Z,53.70
2019-03-18T09:07:43.477Z,47.60
2019-03-18T09:10:14.566Z,52.30
2019-03-18T09:12:43.327Z,50.70
2019-03-18T09:15:12.810Z,51.10
2019-03-18T09:17:41.971Z,44.80
2019-03-18T09:20:13.696Z,44.70
2019-03-18T09:22:42.911Z,48.00
2019-03-18T09:25:12.599Z,46.00
2019-03-18T09:27:41.704Z,47.70
2019-03-18T09:30:19.354Z,47.10
2019-03-18T09:32:48.078Z,44.90
2019-03-18T09:35:17.188Z,46.30
2019-03-18T09:37:46.007Z,44.60
2019-03-18T09:40:16.821Z,44.10
2019-03-18T09:42:45.943Z,44.40
2019-03-18T09:45:16.754Z,46.80
2019-03-18T09:47:45.854Z,44.40
2019-03-18T09:50:15.196Z,42.30
2019-03-18T09:52:44.356Z,46.10
2019-03-18T09:55:13.631Z,42.20
2019-03-18T09:57:42.350Z,43.00
2019-03-18T10:00:18.528Z,42.00
2019-03-18T10:02:47.800Z,41.50
2019-03-18T10:05:16.894Z,43.20
2019-03-18T10:07:45.988Z,41.40
2019-03-18T10:10:15.401Z,41.00
2019-03-18T10:12:44.154Z,40.60
2019-03-18T10:15:22.500Z,40.90
2019-03-18T10:17:51.319Z,41.60
2019-03-18T10:20:20.486Z,39.70
2019-03-18T10:22:49.682Z,39.20
2019-03-18T10:25:18.883Z,42.70
2019-03-18T10:27:47.655Z,39.00
2019-03-18T10:30:16.780Z,39.20
2019-03-18T10:32:45.864Z,37.80
2019-03-18T10:35:14.969Z,37.80
2019-03-18T10:37:44.068Z,37.90
2019-03-18T10:40:14.174Z,39.70
2019-03-18T10:42:43.131Z,37.70
2019-03-18T10:45:13.072Z,37.80
2019-03-18T10:47:41.984Z,36.60
2019-03-18T10:50:18.104Z,37.40
2019-03-18T10:52:47.035Z,37.90
2019-03-18T10:55:15.814Z,38.40
2019-03-18T10:57:45.014Z,38.30
2019-03-18T11:00:16.386Z,36.30
2019-03-18T11:02:45.713Z,35.50
2019-03-18T11:05:15.581Z,36.30
2019-03-18T11:07:44.303Z,36.30
2019-03-18T11:10:19.320Z,35.50
2019-03-18T11:12:48.037Z,35.50
2019-03-18T11:15:21.019Z,35.10
2019-03-18T11:17:49.220Z,35.50
2019-03-18T11:20:18.163Z,35.00
2019-03-18T11:22:47.243Z,37.70
2019-03-18T11:25:17.476Z,36.20
2019-03-18T11:27:46.574Z,35.40
2019-03-18T11:30:20.163Z,35.20
2019-03-18T11:32:49.263Z,37.20
2019-03-18T11:35:18.358Z,37.30
2019-03-18T11:37:47.160Z,38.70
2019-03-18T11:40:20.361Z,36.70
2019-03-18T11:42:49.546Z,33.70
2019-03-18T11:45:18.558Z,37.00
2019-03-18T11:47:47.631Z,34.00
2019-03-18T11:50:20.621Z,37.10
2019-03-18T11:52:49.393Z,36.90
2019-03-18T11:55:28.091Z,35.50
2019-03-18T11:57:57.134Z,35.40
2019-03-18T12:00:26.838Z,34.80
2019-03-18T12:02:56.135Z,36.20
2019-03-18T12:05:26.367Z,37.30
2019-03-18T12:07:55.158Z,38.30
2019-03-18T12:10:25.884Z,36.90
2019-03-18T12:12:54.779Z,38.70
2019-03-18T12:15:28.193Z,36.50
2019-03-18T12:17:56.981Z,35.00
2019-03-18T12:20:26.060Z,35.50
2019-03-18T12:22:55.654Z,36.20
2019-03-18T12:25:24.778Z,37.30
2019-03-18T12:27:53.503Z,35.90
2019-03-18T12:30:27.573Z,36.40
2019-03-18T12:32:56.350Z,38.20
2019-03-18T12:35:25.760Z,40.20
2019-03-18T12:37:54.964Z,37.70
2019-03-18T12:40:23.758Z,37.10
2019-03-18T12:42:52.814Z,35.90
2019-03-18T12:45:22.651Z,36.30
2019-03-18T12:47:51.753Z,35.20
2019-03-18T12:50:36.934Z,34.80
2019-03-18T12:52:52.140Z,35.70
2019-03-18T12:55:21.303Z,36.00
2019-03-18T12:57:50.413Z,36.80
2019-03-18T13:00:36.000Z,38.40
2019-03-18T13:03:05.381Z,38.30
2019-03-18T13:05:34.486Z,39.30
2019-03-18T13:08:03.680Z,37.90
2019-03-18T13:10:32.777Z,38.20
2019-03-18T13:13:01.492Z,38.10
2019-03-18T13:15:30.313Z,37.10
2019-03-18T13:17:59.554Z,36.50
2019-03-18T13:20:28.280Z,37.90
2019-03-18T13:22:57.090Z,39.20
2019-03-18T13:25:26.117Z,39.20
2019-03-18T13:27:55.220Z,38.90
2019-03-18T13:30:27.161Z,39.90
2019-03-18T13:32:55.945Z,40.00
2019-03-18T13:35:25.169Z,41.40
2019-03-18T13:37:53.930Z,40.80
2019-03-18T13:40:22.712Z,39.40
2019-03-18T13:42:51.771Z,40.20
2019-03-18T13:45:24.317Z,41.30
2019-03-18T13:47:53.428Z,41.70
2019-03-18T13:50:22.932Z,41.10
2019-03-18T13:52:51.835Z,41.60
2019-03-18T13:55:21.020Z,42.60
2019-03-18T13:57:50.121Z,42.20
2019-03-18T14:00:20.918Z,42.20
2019-03-18T14:02:50.054Z,42.90
2019-03-18T14:05:18.883Z,44.20
2019-03-18T14:07:59.822Z,46.30
2019-03-18T14:10:21.009Z,47.80
2019-03-18T14:12:49.719Z,48.50
2019-03-18T14:15:20.481Z,48.20
2019-03-18T14:17:49.648Z,49.60
2019-03-18T14:20:21.197Z,51.00
2019-03-18T14:22:49.996Z,50.80
2019-03-18T14:25:18.808Z,51.00
2019-03-18T14:27:47.971Z,50.80
2019-03-18T14:30:18.915Z,52.20
2019-03-18T14:32:47.739Z,53.10
2019-03-18T14:35:16.899Z,53.70
2019-03-18T14:37:45.999Z,54.20
2019-03-18T14:40:17.445Z,54.30
2019-03-18T14:42:46.169Z,53.70
2019-03-18T14:45:17.081Z,53.90
2019-03-18T14:47:46.270Z,53.70
2019-03-18T14:50:17.118Z,53.90
2019-03-18T14:52:46.207Z,55.00
2019-03-18T14:55:16.260Z,55.30
2019-03-18T14:57:45.050Z,55.10
2019-03-18T15:00:22.511Z,55.00
2019-03-18T15:02:51.397Z,55.90
2019-03-18T15:05:20.512Z,55.80
2019-03-18T15:07:49.589Z,55.70
2019-03-18T15:10:20.628Z,55.20
2019-03-18T15:12:49.759Z,54.70
2019-03-18T15:15:19.561Z,55.20
2019-03-18T15:17:48.336Z,56.50
2019-03-18T15:20:30.008Z,55.70
2019-03-18T15:22:58.721Z,55.70
2019-03-18T15:25:36.911Z,55.30
2019-03-18T15:28:06.014Z,56.00
2019-03-18T15:30:35.110Z,55.50
2019-03-18T15:33:04.127Z,56.40
2019-03-18T15:35:32.877Z,58.40
2019-03-18T15:38:01.657Z,58.90
2019-03-18T15:40:31.186Z,60.40
2019-03-18T15:42:59.896Z,62.10
2019-03-18T15:45:28.731Z,62.40
2019-03-18T15:47:57.876Z,63.30
2019-03-18T15:50:27.258Z,63.90
2019-03-18T15:52:55.972Z,65.20
2019-03-18T15:55:25.171Z,66.40
2019-03-18T15:57:53.938Z,67.50
2019-03-18T16:00:27.852Z,68.40
2019-03-18T16:02:57.048Z,69.90
2019-03-18T16:05:26.160Z,70.90
2019-03-18T16:07:55.257Z,71.00
2019-03-18T16:10:24.965Z,71.80
2019-03-18T16:12:54.149Z,72.00
2019-03-18T16:15:23.260Z,72.00
2019-03-18T16:17:52.035Z,71.10
2019-03-18T16:20:24.943Z,72.10
2019-03-18T16:22:54.018Z,71.60
2019-03-18T16:25:22.769Z,71.80
2019-03-18T16:27:51.800Z,71.40
2019-03-18T16:30:22.195Z,73.10
2019-03-18T16:32:51.166Z,71.40
2019-03-18T16:35:20.381Z,72.20
2019-03-18T16:37:49.519Z,72.80
2019-03-18T16:40:25.280Z,72.80
2019-03-18T16:42:54.258Z,73.20
2019-03-18T16:45:23.057Z,73.80
2019-03-18T16:47:52.153Z,74.10
2019-03-18T16:50:23.399Z,74.00
2019-03-18T16:52:52.501Z,73.40
2019-03-18T16:55:21.286Z,73.90
2019-03-18T16:57:50.895Z,73.60
2019-03-18T17:00:21.417Z,73.50
2019-03-18T17:02:50.622Z,73.80
2019-03-18T17:05:19.332Z,74.20
2019-03-18T17:07:48.242Z,74.30
2019-03-18T17:10:17.260Z,76.00
2019-03-18T17:12:46.286Z,74.00
2019-03-18T17:15:16.497Z,74.00
2019-03-18T17:17:45.725Z,75.70
2019-03-18T17:20:15.834Z,73.50
2019-03-18T17:22:49.448Z,76.00
2019-03-18T17:25:22.822Z,74.90
2019-03-18T17:27:51.529Z,75.30
2019-03-18T17:30:21.324Z,76.40
2019-03-18T17:32:50.529Z,75.60
2019-03-18T17:35:19.625Z,77.10
2019-03-18T17:37:48.724Z,76.30
2019-03-18T17:40:18.875Z,76.90
2019-03-18T17:42:48.034Z,77.90
2019-03-18T17:45:20.224Z,77.00
2019-03-18T17:47:49.419Z,79.30
2019-03-18T17:50:26.087Z,78.80
2019-03-18T17:53:02.351Z,79.30
2019-03-18T17:55:25.725Z,81.00
2019-03-18T17:57:54.512Z,80.90
2019-03-18T18:00:32.580Z,81.00
2019-03-18T18:03:01.916Z,82.00
2019-03-18T18:05:30.998Z,79.10
2019-03-18T18:08:00.194Z,82.40
2019-03-18T18:10:29.385Z,81.80
2019-03-18T18:12:58.518Z,81.20
2019-03-18T18:15:27.325Z,82.30
2019-03-18T18:17:56.387Z,82.00
2019-03-18T18:20:25.105Z,82.70
2019-03-18T18:22:54.281Z,82.00
2019-03-18T18:25:23.071Z,82.50
2019-03-18T18:27:51.853Z,81.40
2019-03-18T18:30:21.014Z,80.60
2019-03-18T18:32:50.156Z,81.90
2019-03-18T18:35:18.940Z,81.40
2019-03-18T18:37:48.143Z,82.30
2019-03-18T18:40:19.479Z,82.90
2019-03-18T18:42:48.281Z,83.40
2019-03-18T18:45:17.004Z,82.10
2019-03-18T18:47:45.806Z,81.40
2019-03-18T18:50:14.950Z,82.70
2019-03-18T18:52:43.672Z,82.90
2019-03-18T18:55:13.861Z,82.40
2019-03-18T18:57:42.954Z,79.00
2019-03-18T19:00:17.787Z,82.20
2019-03-18T19:02:47.032Z,82.70
2019-03-18T19:05:16.979Z,82.20
2019-03-18T19:07:47.501Z,82.90
2019-03-18T19:10:20.734Z,83.50
2019-03-18T19:12:49.491Z,83.70
2019-03-18T19:15:23.127Z,82.90
2019-03-18T19:20:33.212Z,82.70
2019-03-18T19:23:02.293Z,83.40
2019-03-18T19:25:31.483Z,82.40
2019-03-18T19:28:00.237Z,84.00
2019-03-18T19:30:29.381Z,84.60
2019-03-18T19:32:58.164Z,83.80
2019-03-18T19:35:28.737Z,83.00
2019-03-18T19:37:57.739Z,84.00
2019-03-18T19:40:26.467Z,85.60
2019-03-18T19:42:55.220Z,84.90
2019-03-18T19:45:24.361Z,86.00
2019-03-18T19:47:53.620Z,83.90
2019-03-18T19:50:31.166Z,83.80
2019-03-18T19:53:00.159Z,86.30
2019-03-18T19:55:29.247Z,83.20
2019-03-18T19:57:58.451Z,84.50
2019-03-18T20:00:28.727Z,86.80
2019-03-18T20:02:57.810Z,85.70
2019-03-18T20:05:26.977Z,85.90
2019-03-18T20:07:55.760Z,86.20
2019-03-18T20:10:24.564Z,83.40
2019-03-18T20:12:53.647Z,86.20
2019-03-18T20:15:22.436Z,83.40
2019-03-18T20:17:51.260Z,85.50
2019-03-18T20:20:21.267Z,86.20
2019-03-18T20:22:50.461Z,87.10
2019-03-18T20:25:19.192Z,85.40
2019-03-18T20:27:48.087Z,87.10
2019-03-18T20:30:19.492Z,85.40
2019-03-18T20:32:48.253Z,87.70
2019-03-18T20:35:23.790Z,87.30
2019-03-18T20:37:53.021Z,87.10
2019-03-18T20:40:21.729Z,86.20
2019-03-18T20:42:50.804Z,86.10
2019-03-18T20:45:23.915Z,86.20
2019-03-18T20:47:53.092Z,87.40
2019-03-18T20:50:25.667Z,86.90
2019-03-18T20:52:54.503Z,87.60
2019-03-18T20:55:23.301Z,87.60
2019-03-18T20:57:52.066Z,86.80
2019-03-18T21:00:22.146Z,87.90
2019-03-18T21:02:50.948Z,87.50
2019-03-18T21:05:19.906Z,88.30
2019-03-18T21:07:49.127Z,87.20
2019-03-18T21:10:18.956Z,86.40
2019-03-18T21:12:47.711Z,88.50
2019-03-18T21:15:17.852Z,88.40
2019-03-18T21:17:47.723Z,85.50
2019-03-18T21:20:20.754Z,87.10
2019-03-18T21:22:49.540Z,87.40
2019-03-18T21:25:18.751Z,87.00
2019-03-18T21:27:47.538Z,88.60
2019-03-18T21:30:24.005Z,88.70
2019-03-18T21:32:52.841Z,89.80
2019-03-18T21:35:21.510Z,90.10
2019-03-18T21:37:50.676Z,90.30
2019-03-18T21:40:20.381Z,90.20
2019-03-18T21:42:49.366Z,90.30
2019-03-18T21:45:20.046Z,90.50
2019-03-18T21:47:48.771Z,90.20
2019-03-18T21:50:17.900Z,90.50
2019-03-18T21:52:46.644Z,90.70
2019-03-18T21:55:16.813Z,90.10
2019-03-18T21:57:46.004Z,90.40
2019-03-18T22:00:20.390Z,90.60
2019-03-18T22:02:49.226Z,90.60
2019-03-18T22:05:18.526Z,86.80
2019-03-18T22:07:47.635Z,89.50
2019-03-18T22:10:17.782Z,90.70
2019-03-18T22:12:47.668Z,89.30
2019-03-18T22:15:17.363Z,88.80
2019-03-18T22:17:46.178Z,88.50
2019-03-18T22:20:19.042Z,89.90
2019-03-18T22:22:48.135Z,90.30
2019-03-18T22:25:17.856Z,88.80
2019-03-18T22:27:46.942Z,89.70
2019-03-18T22:30:19.677Z,90.00
2019-03-18T22:32:49.031Z,89.80
2019-03-18T22:35:18.197Z,90.50
2019-03-18T22:37:47.333Z,90.70
2019-03-18T22:40:17.449Z,90.70
2019-03-18T22:42:46.540Z,91.00
2019-03-18T22:45:19.431Z,91.10
2019-03-18T22:47:48.536Z,90.00
2019-03-18T22:50:17.929Z,90.40
2019-03-18T22:52:47.024Z,90.00
2019-03-18T22:55:16.192Z,89.20
2019-03-18T22:57:45.321Z,90.40
2019-03-18T23:00:26.398Z,90.20
2019-03-18T23:02:55.399Z,90.50
2019-03-18T23:05:24.617Z,89.90
2019-03-18T23:07:53.317Z,90.50
2019-03-18T23:10:22.478Z,90.70
2019-03-18T23:12:51.566Z,90.50
2019-03-18T23:15:20.559Z,90.40
2019-03-18T23:17:49.653Z,91.00
2019-03-18T23:20:18.757Z,91.20
2019-03-18T23:22:47.534Z,91.40
2019-03-18T23:25:16.351Z,91.40
2019-03-18T23:27:45.132Z,90.90
2019-03-18T23:30:15.138Z,91.50
2019-03-18T23:32:43.955Z,91.80
2019-03-18T23:35:13.126Z,91.80
2019-03-18T23:37:42.224Z,91.70
2019-03-18T23:40:12.951Z,91.40
2019-03-18T23:42:42.063Z,91.70
2019-03-18T23:45:11.870Z,91.20
2019-03-18T23:47:40.972Z,91.00
2019-03-18T23:50:12.402Z,90.40
2019-03-18T23:52:41.222Z,91.20
2019-03-18T23:55:19.175Z,91.00
2019-03-18T23:57:40.904Z,91.50
